Tiempo atmosférico en la estación meteorológica de Molina de Segura, Murcia (170 m.)



Fecha
DESCASC
Temp. máxima en grados centígrados (hora)
DESCASC
Temp. mínima en grados centígrados (hora)
DESCASC
Temp. media en grados centígrados
DESCASC
Racha de viento máxima en m/sg (hora)
DESCASC
Velocidad máxima media en intervalos de 10 minutos(hora)
DESCASC
Precipitaciones diarias en mm
DESCASC
Precipitaciones de 00:00 a 06:00 en mm
DESCASC
Precipitaciones de 06:00 a 12:00 en mm
DESCASC
Precipitaciones de 12:00 a 18:00 en mm
DESCASC
Precipitaciones de 18:00 a 24:00 en mm
DESCASC
22-04-2019 18.3 (15:10) 10.4 (02:10) 14.3 8.61 (08:00) 6.11 (02:20) 2.4 2 0.4 0 0
21-04-2019 15.5 (13:40) 12.1 (00:00) 13.8 11.11 (11:20) 6.11 (13:40) 4.6 0 0.2 3 1.4
20-04-2019 13.6 (16:30) 10.7 (00:50) 12.2 8.89 (01:10) 5.56 (00:50) 79.2 49.2 25.8 4 0.2
19-04-2019 13.4 (14:00) 10.7 (02:40) 12 6.67 (23:50) 3.89 (23:50) 35.6 1 12.2 8.2 14.2
18-04-2019 17.1 (13:00) 11.6 (00:00) 14.4 14.72 (14:50) 10.28 (14:50) 0.2 0 0 0 0.2
17-04-2019 21.6 (13:40) 13 (00:00) 17.3 11.94 (18:20) 7.22 (18:20) 0 0 0 0 0
16-04-2019 24.6 (14:10) 11.7 (00:00) 18.2 13.06 (14:20) 8.06 (14:30) 0 0 0 0 0
15-04-2019 24.2 (15:10) 14.5 (00:00) 19.4 10 (12:30) 6.67 (12:30) 0 0 0 0 0
14-04-2019 29.4 (16:20) 9.8 (00:00) 19.6 8.61 (11:30) 5.83 (07:10) 0 0 0 0 0
13-04-2019 26.1 (17:20) 8.7 (00:00) 17.4 9.72 (11:50) 6.39 (10:50) 0 0 0 0 0
12-04-2019 23.3 (18:10) 10.6 (00:00) 16.9 12.22 (11:30) 7.78 (11:40) 0 0 0 0 0
11-04-2019 21.6 (17:40) 9.2 (00:00) 15.4 11.67 (00:40) 7.5 (00:50) 0 0 0 0 0
10-04-2019 19.3 (16:20) 9.3 (00:00) 14.3 14.44 (18:20) 9.44 (17:50) 1.4 0 0 0 1.4
09-04-2019 20.5 (16:20) 10.6 (00:00) 15.6 18.06 (01:50) 10.83 (02:00) 0 0 0 0 0
08-04-2019 22.5 (16:40) 11.8 (00:00) 17.2 11.11 (18:10) 6.11 (18:10) 0.2 0 0 0 0.2
07-04-2019 18.7 (16:40) 8 (00:00) 13.4 15 (10:30) 9.72 (10:20) 2.2 0 2.2 0 0
06-04-2019 17 (16:00) 6.1 (00:00) 11.5 11.67 (18:20) 8.06 (18:40) 1.4 0 0 1.4 0
05-04-2019 19.1 (14:40) 8.3 (00:00) 13.7 14.17 (21:10) 8.33 (21:10) 2.8 0 0 2 0.8
04-04-2019 20 (16:20) 8.7 (00:00) 14.3 8.33 (19:10) 5.56 (02:20) 0 0 0 0 0
03-04-2019 24.2 (16:30) 9.3 (00:00) 16.8 8.61 (17:30) 5 (11:00) 0 0 0 0 0
02-04-2019 23.5 (19:00) 9.3 (00:00) 16.4 8.33 (13:30) 5 (13:10) 0.2 0.2 0 0 0
01-04-2019 18.3 (14:20) 11.5 (00:00) 14.9 7.22 (17:40) 4.44 (19:40) 0.4 0.2 0 0.2 0
31-03-2019 12.5 (20:20) 9.5 (00:00) 11 6.39 (15:00) 4.17 (11:50) 16 0.6 8.4 6.4 0.6
30-03-2019 19 (14:30) 5.3 (00:00) 12.2 9.72 (15:40) 5.83 (16:40) 0 0 0 0 0
29-03-2019 18.4 (15:20) 4.9 (00:00) 11.6 9.72 (13:40) 6.11 (17:00) 0 0 0 0 0
28-03-2019 20.1 (14:30) 4.8 (00:00) 12.5 10.83 (13:50) 5.28 (15:20) 0 0 0 0 0
27-03-2019 19.4 (14:40) 5.4 (00:00) 12.4 10.83 (14:40) 6.39 (16:20) 0 0 0 0 0
26-03-2019 19.9 (14:20) 5.9 (00:00) 12.9 11.94 (14:40) 7.22 (12:50) 0 0 0 0 0
25-03-2019 23.5 (15:20) 7.4 (00:00) 15.5 8.06 (17:30) 5.56 (17:30) 0 0 0 0 0

Gráficas

Temp. máximas Temp. mínimas Temp. medias Precipitaciones Rachas de viento máximas Velocidades máximas media en intervalos de 10 minutos

Datos horarios

Fecha y hora oficial Temperatura (ºC) Velocidad del viento (km/h) Dirección del viento Racha (km/h) Dirección de racha Precipitación (mm) Presión (hPa) Tendencia (hPa) Humedad (%)
2019-04-23 23:00:00 13.4 13 Noroeste 35 Noroeste 0 -- -- 53
2019-04-23 22:00:00 13.7 22 Noroeste 48 Noroeste 0 -- -- 57
2019-04-23 21:00:00 15.2 14 Noroeste 28 Noroeste 0 -- -- 69
2019-04-23 20:00:00 16.6 11 Sudoeste 25 Sudoeste 0 -- -- 69
2019-04-23 19:00:00 18 12 Sudoeste 25 Sudoeste 0 -- -- 60
2019-04-23 18:00:00 18.1 11 Sudoeste 22 Sudoeste 0 -- -- 61
2019-04-23 17:00:00 16.1 10 Oeste 19 Oeste 0.2 -- -- 72
2019-04-23 16:00:00 14.2 5 Noroeste 26 Oeste 1 -- -- 93
2019-04-23 15:00:00 14.8 15 Noroeste 34 Noroeste 0.2 -- -- 83
2019-04-23 14:00:00 19.8 6 Sudoeste 18 Oeste 0 -- -- 55
2019-04-23 13:00:00 19.7 4 Noroeste 9 Oeste 0 -- -- 50
2019-04-23 12:00:00 18.3 7 Noroeste 12 Noroeste 0 -- -- 54
2019-04-23 11:00:00 17.5 5 Norte 13 Oeste 0 -- -- 58
2019-04-23 10:00:00 15.6 4 Oeste 10 Oeste 0 -- -- 74
2019-04-23 09:00:00 13.3 2 Nordeste 16 Noroeste 0 -- -- 79
2019-04-23 08:00:00 13.4 10 Noroeste 24 Noroeste 0 -- -- 75
2019-04-23 07:00:00 11.7 10 Noroeste 18 Noroeste 0 -- -- 84
2019-04-23 06:00:00 11.2 3 Oeste 6 Sudoeste 0 -- -- 92
2019-04-23 05:00:00 11.7 0 Calma 6 Sudeste 0 -- -- 92
2019-04-23 04:00:00 11.6 4 Sudeste 8 Sudeste 0 -- -- 93
2019-04-23 03:00:00 11.3 4 Noroeste 7 Noroeste 0 -- -- 94
2019-04-23 02:00:00 11.1 4 Noroeste 7 Noroeste 0 -- -- 93
2019-04-23 01:00:00 11.8 3 Norte 4 Norte 0 -- -- 91
2019-04-23 00:00:00 13.1 3 Norte 5 Noroeste 0 -- -- 85
2019-04-22 23:00:00 14.6 2 Noroeste 19 Oeste 0 -- -- 81
2019-04-22 22:00:00 15.3 9 Oeste 18 Sudoeste 0 -- -- 78
2019-04-22 21:00:00 15.9 6 Oeste 13 Oeste 0 -- -- 71
2019-04-22 20:00:00 16.5 4 Oeste 16 Noroeste 0 -- -- 67
2019-04-22 19:00:00 16.7 12 Noroeste 26 Noroeste 0 -- -- 66
2019-04-22 18:00:00 16.8 14 Noroeste 30 Noroeste 0 -- -- 65
2019-04-22 17:00:00 17.8 20 Noroeste 30 Noroeste 0 -- -- 59
2019-04-22 16:00:00 17.7 16 Noroeste 27 Noroeste 0 -- -- 60
2019-04-22 15:00:00 17.8 6 Oeste 19 Noroeste 0 -- -- 64
2019-04-22 14:00:00 16.2 10 Noroeste 19 Noroeste 0 -- -- 70
2019-04-22 13:00:00 15.5 10 Noroeste 23 Oeste 0 -- -- 73
2019-04-22 12:00:00 13.6 12 Noroeste 27 Noroeste 0 -- -- 80
2019-04-22 11:00:00 13 18 Noroeste 30 Norte 0 -- -- 79
2019-04-22 10:00:00 11.9 15 Noroeste 29 Noroeste 0 -- -- 87
2019-04-22 09:00:00 11.1 12 Noroeste 30 Noroeste 0 -- -- 91
2019-04-22 08:00:00 10.9 17 Noroeste 31 Noroeste 0.2 -- -- 93
2019-04-22 07:00:00 10.7 10 Noroeste 23 Noroeste 0.2 -- -- 96
2019-04-22 06:00:00 10.6 17 Noroeste 26 Noroeste 0.2 -- -- 96
2019-04-22 05:00:00 10.7 13 Noroeste 25 Noroeste 0.2 -- -- 93
2019-04-22 04:00:00 10.9 15 Noroeste 30 Noroeste 0 -- -- 90
2019-04-22 03:00:00 10.7 18 Noroeste 30 Noroeste 0 -- -- 91
2019-04-22 02:00:00 10.5 18 Noroeste 30 Noroeste 0.8 -- -- 95
2019-04-22 01:00:00 11.2 13 Noroeste 22 Noroeste 0.8 -- -- 93
2019-04-22 00:00:00 12.1 10 Noroeste 21 Norte 0.2 -- -- 87
2019-04-21 23:00:00 12.5 6 Noroeste 30 Noroeste 0 -- -- 84
2019-04-21 22:00:00 12.4 18 Noroeste 38 Norte 0 -- -- 84
2019-04-21 21:00:00 12.2 10 Norte 22 Norte 0.2 -- -- 85
2019-04-21 20:00:00 12.3 8 Norte 24 Nordeste 0.8 -- -- 87
2019-04-21 19:00:00 12.6 10 Norte 18 Norte 0.2 -- -- 89
2019-04-21 18:00:00 12.6 7 Norte 26 Norte 1.2 -- -- 91
2019-04-21 17:00:00 12.8 13 Nordeste 36 Nordeste 1.4 -- -- 90
2019-04-21 16:00:00 13.6 19 Nordeste 36 Nordeste 0.2 -- -- 83
2019-04-21 15:00:00 13.9 15 Norte 31 Nordeste 0.2 -- -- 82
2019-04-21 14:00:00 15.3 18 Nordeste 36 Norte 0 -- -- 72
2019-04-21 13:00:00 14.9 17 Nordeste 36 Nordeste 0 -- -- 72
2019-04-21 12:00:00 14.9 17 Nordeste 40 Nordeste 0 -- -- 72
2019-04-21 11:00:00 14.4 14 Nordeste 31 Este 0.2 -- -- 74
2019-04-21 10:00:00 13.2 9 Nordeste 27 Nordeste 0 -- -- 80
2019-04-21 09:00:00 12.9 9 Nordeste 23 Nordeste 0 -- -- 78
2019-04-21 08:00:00 12.6 10 Este 27 Nordeste 0 -- -- 78
2019-04-21 07:00:00 12.5 12 Nordeste 24 Nordeste 0 -- -- 77
2019-04-21 06:00:00 12.5 14 Nordeste 30 Nordeste 0 -- -- 79
2019-04-21 05:00:00 12.5 13 Nordeste 27 Nordeste 0 -- -- 80
2019-04-21 04:00:00 12.5 15 Nordeste 32 Nordeste 0 -- -- 81
2019-04-21 03:00:00 12.6 14 Nordeste 36 Nordeste 0 -- -- 81
2019-04-21 02:00:00 12.9 16 Nordeste 30 Nordeste 0 -- -- 84
2019-04-21 01:00:00 12.5 9 Nordeste 21 Nordeste 0 -- -- 91
2019-04-21 00:00:00 12.1 5 Nordeste 10 Norte 0 -- -- 99
2019-04-20 23:00:00 12.2 0 Calma 6 Oeste 0 -- -- 100
2019-04-20 22:00:00 12.5 0 Calma 4 Sudoeste 0 -- -- 100
2019-04-20 21:00:00 12.6 3 Noroeste 8 Oeste 0 -- -- 100
2019-04-20 20:00:00 12.9 5 Oeste 13 Oeste 0 -- -- 100
2019-04-20 19:00:00 13 5 Sudoeste 13 Oeste 0.2 -- -- 100
2019-04-20 18:00:00 13.1 8 Oeste 17 Oeste 0 -- -- 100
2019-04-20 17:00:00 13.3 5 Sudoeste 10 Sudoeste 0 -- -- 99
2019-04-20 16:00:00 13.3 3 Sudeste 14 Sudoeste 0 -- -- 100
2019-04-20 15:00:00 13.4 4 Sudeste 11 Este 0.4 -- -- 100
2019-04-20 14:00:00 13.2 2 Sur 14 Este 2 -- -- 100
2019-04-20 13:00:00 12.9 10 Este 22 Este 1.6 -- -- 100
2019-04-20 12:00:00 13 8 Este 17 Este 1.6 -- -- 100
2019-04-20 11:00:00 12.9 5 Este 11 Este 1.4 -- -- 100
2019-04-20 10:00:00 12.7 3 Este 9 Este 4 -- -- 100
2019-04-20 09:00:00 12.6 4 Sudeste 15 Sudeste 4.6 -- -- 100
2019-04-20 08:00:00 12.5 13 Este 24 Este 7.6 -- -- 100
2019-04-20 07:00:00 12.7 14 Este 27 Este 6.6 -- -- 100
2019-04-20 06:00:00 12.8 18 Este 30 Este 4.8 -- -- 100
2019-04-20 05:00:00 11.8 10 Nordeste 23 Nordeste 12.6 -- -- 100
2019-04-20 04:00:00 10.9 7 Oeste 23 Oeste 5.6 -- -- 100
2019-04-20 03:00:00 10.8 8 Noroeste 27 Noroeste 9.2 -- -- 99
2019-04-20 02:00:00 10.7 13 Noroeste 32 Noroeste 7.4 -- -- 99
2019-04-20 01:00:00 10.8 18 Noroeste 31 Noroeste 9.6 -- -- 99
2019-04-20 00:00:00 11 14 Noroeste 24 Noroeste 7.2 -- -- 98
2019-04-19 23:00:00 11.5 4 Noroeste 12 Noroeste 4.8 -- -- 98
2019-04-19 22:00:00 11.9 2 Norte 8 Noroeste 1 -- -- 97
2019-04-19 21:00:00 11.9 4 Oeste 8 Oeste 0 -- -- 97
2019-04-19 20:00:00 12 6 Norte 12 Noroeste 0.6 -- -- 97
2019-04-19 19:00:00 12 6 Noroeste 12 Norte 0.6 -- -- 96
2019-04-19 18:00:00 12 6 Norte 14 Este 2 -- -- 96
2019-04-19 17:00:00 12 5 Nordeste 12 Nordeste 1.2 -- -- 95
2019-04-19 16:00:00 12 6 Este 21 Nordeste 2.6 -- -- 95
2019-04-19 15:00:00 12.5 9 Nordeste 15 Nordeste 1.8 -- -- 94
2019-04-19 14:00:00 13.4 0 Calma 3 Noroeste 0 -- -- 93
2019-04-19 13:00:00 12.9 0 Calma 4 Nordeste 0.6 -- -- 96
2019-04-19 12:00:00 12.5 0 Calma 7 Este 1 -- -- 97
2019-04-19 11:00:00 12.5 7 Este 15 Este 1.2 -- -- 98
2019-04-19 10:00:00 12.7 8 Este 18 Este 2.4 -- -- 98
2019-04-19 09:00:00 12.8 9 Este 18 Este 3.2 -- -- 98
2019-04-19 08:00:00 12.3 8 Este 14 Este 1.8 -- -- 97
2019-04-19 07:00:00 11.6 4 Nordeste 8 Nordeste 2.6 -- -- 95
2019-04-19 06:00:00 11.4 0 Calma 7 Sudeste 1 -- -- 94
2019-04-19 05:00:00 11.2 4 Este 7 Este 0 -- -- 92
2019-04-19 04:00:00 10.9 3 Norte 8 Nordeste 0 -- -- 92
2019-04-19 03:00:00 10.7 2 Norte 5 Nordeste 0 -- -- 92
2019-04-19 02:00:00 11 3 Sudeste 8 Norte 0 -- -- 91
2019-04-19 01:00:00 11.3 3 Norte 5 Nordeste 0 -- -- 90
2019-04-19 00:00:00 11.6 0 Calma 8 Noroeste 0 -- -- 88
2019-04-18 23:00:00 11.8 5 Noroeste 8 Noroeste 0 -- -- 88
2019-04-18 22:00:00 12.4 3 Noroeste 10 Noroeste 0 -- -- 86
2019-04-18 21:00:00 13.6 2 Noroeste 12 Noroeste 0 -- -- 82
2019-04-18 20:00:00 14.7 8 Noroeste 26 Oeste 0 -- -- 77
2019-04-18 19:00:00 13.4 15 Oeste 35 Oeste 0.2 -- -- 84
2019-04-18 18:00:00 13.3 5 Oeste 26 Oeste 0 -- -- 85
2019-04-18 17:00:00 13.7 15 Noroeste 31 Noroeste 0 -- -- 81
2019-04-18 16:00:00 13.4 22 Noroeste 45 Noroeste 0 -- -- 72
2019-04-18 15:00:00 13.4 35 Noroeste 53 Noroeste 0 -- -- 72
2019-04-18 14:00:00 16.8 12 Noroeste 23 Noroeste 0 -- -- 64
2019-04-18 13:00:00 17.1 8 Noroeste 17 Noroeste 0 -- -- 62
2019-04-18 12:00:00 16.3 8 Noroeste 13 Norte 0 -- -- 64
2019-04-18 11:00:00 15.8 8 Noroeste 13 Oeste 0 -- -- 67
2019-04-18 10:00:00 15.2 8 Oeste 11 Norte 0 -- -- 71
2019-04-18 09:00:00 14.7 6 Nordeste 12 Nordeste 0 -- -- 66
2019-04-18 08:00:00 14.4 9 Norte 14 Norte 0 -- -- 72
2019-04-18 07:00:00 14.2 4 Oeste 10 Noroeste 0 -- -- 71
2019-04-18 06:00:00 14.2 5 Oeste 11 Nordeste 0 -- -- 71
2019-04-18 05:00:00 14.6 9 Norte 24 Oeste 0 -- -- 68
2019-04-18 04:00:00 14.8 8 Norte 22 Norte 0 -- -- 67
2019-04-18 03:00:00 13.6 0 Calma 10 Nordeste 0 -- -- 80
2019-04-18 02:00:00 14 6 Norte 9 Norte 0 -- -- 79
2019-04-18 01:00:00 14.3 9 Norte 27 Noroeste 0 -- -- 80
2019-04-18 00:00:00 13.5 12 Noroeste 21 Noroeste 0 -- -- 86
2019-04-17 23:00:00 13.7 2 Este 7 Este 0 -- -- 83
2019-04-17 22:00:00 14.4 8 Sudeste 28 Sudeste 0 -- -- 81
2019-04-17 21:00:00 14.9 18 Sudeste 33 Sudeste 0 -- -- 80
2019-04-17 20:00:00 16.1 19 Sudeste 36 Este 0 -- -- 75
2019-04-17 19:00:00 17.5 24 Sudeste 43 Este 0 -- -- 68
2019-04-17 18:00:00 18.6 21 Sudeste 35 Este 0 -- -- 62
2019-04-17 17:00:00 20.2 21 Este 34 Este 0 -- -- 54
2019-04-17 16:00:00 21.2 22 Sudeste 37 Este 0 -- -- 48
2019-04-17 15:00:00 21.2 19 Este 32 Este 0 -- -- 48
2019-04-17 14:00:00 21.2 17 Sudeste 27 Este 0 -- -- 47
2019-04-17 13:00:00 20.3 8 Sudeste 24 Este 0 -- -- 55
2019-04-17 12:00:00 19.1 13 Sudeste 26 Sudeste 0 -- -- 59
2019-04-17 11:00:00 16.8 8 Este 15 Este 0 -- -- 69
2019-04-17 10:00:00 15.9 6 Sudeste 11 Sudeste 0 -- -- 76
2019-04-17 09:00:00 14.6 3 Sudeste 8 Sudeste 0 -- -- 86
2019-04-17 08:00:00 13.9 3 Sudeste 6 Nordeste 0 -- -- 87
2019-04-17 07:00:00 13.9 3 Este 6 Este 0 -- -- 87
2019-04-17 06:00:00 14 5 Sudeste 7 Sudeste 0 -- -- 86
2019-04-17 05:00:00 14 4 Este 20 Este 0 -- -- 86
2019-04-17 04:00:00 14 14 Este 20 Este 0 -- -- 85
2019-04-17 03:00:00 14.1 10 Este 21 Sudeste 0 -- -- 88
2019-04-17 02:00:00 14 9 Este 19 Este 0 -- -- 87
2019-04-17 01:00:00 13.2 6 Este 12 Este 0 -- -- 91
2019-04-17 00:00:00 13.4 7 Este 12 Este 0 -- -- 89
2019-04-16 23:00:00 14.1 8 Este 17 Este 0 -- -- 87
2019-04-16 22:00:00 15 9 Este 20 Este 0 -- -- 84
2019-04-16 21:00:00 15.9 16 Este 31 Sudeste 0 -- -- 73
2019-04-16 20:00:00 18 19 Sudeste 35 Este 0 -- -- 66
2019-04-16 19:00:00 19.8 22 Sudeste 36 Sudeste 0 -- -- 57
2019-04-16 18:00:00 20.7 23 Sudeste 41 Sudeste 0 -- -- 55
2019-04-16 17:00:00 21 21 Sudeste 42 Este 0 -- -- 57
2019-04-16 16:00:00 21.4 24 Este 44 Este 0 -- -- 59
2019-04-16 15:00:00 22.3 25 Este 47 Este 0 -- -- 56
2019-04-16 14:00:00 24.5 10 Sur 21 Este 0 -- -- 30
2019-04-16 13:00:00 22.5 5 Noroeste 21 Noroeste 0 -- -- 39
2019-04-16 12:00:00 20.8 10 Oeste 25 Noroeste 0 -- -- 46
2019-04-16 11:00:00 19 15 Noroeste 27 Oeste 0 -- -- 51
2019-04-16 10:00:00 17.6 19 Noroeste 33 Noroeste 0 -- -- 56
2019-04-16 09:00:00 15.8 9 Noroeste 21 Oeste 0 -- -- 62
2019-04-16 08:00:00 14.4 10 Oeste 28 Noroeste 0 -- -- 70
2019-04-16 07:00:00 15.9 26 Norte 44 Norte 0 -- -- 61
2019-04-16 06:00:00 13.2 14 Noroeste 20 Noroeste 0 -- -- 82
2019-04-16 05:00:00 12.1 5 Oeste 18 Noroeste 0 -- -- 93
2019-04-16 04:00:00 11.7 8 Noroeste 10 Norte 0 -- -- 97
2019-04-16 03:00:00 12 9 Noroeste 13 Norte 0 -- -- 96
2019-04-16 02:00:00 12.6 5 Noroeste 6 Norte 0 -- -- 93
2019-04-16 01:00:00 13.6 4 Nordeste 6 Este 0 -- -- 91
2019-04-16 00:00:00 14.8 4 Este 14 Este 0 -- -- 89
2019-04-15 23:00:00 15.5 9 Este 16 Sudeste 0 -- -- 89
2019-04-15 22:00:00 16 11 Este 20 Sudeste 0 -- -- 81
2019-04-15 21:00:00 17.6 10 Sudeste 19 Sudeste 0 -- -- 67
2019-04-15 20:00:00 19.3 16 Sudeste 28 Sudeste 0 -- -- 62
2019-04-15 19:00:00 20.4 19 Este 30 Este 0 -- -- 53
2019-04-15 18:00:00 21.8 20 Este 32 Este 0 -- -- 53
2019-04-15 17:00:00 22.3 19 Sudeste 31 Este 0 -- -- 54
2019-04-15 16:00:00 23.3 15 Sudeste 29 Sudeste 0 -- -- 51
2019-04-15 15:00:00 24.1 16 Sudeste 28 Sudeste 0 -- -- 48
2019-04-15 14:00:00 22.1 17 Este 28 Este 0 -- -- 58
2019-04-15 13:00:00 21.2 18 Sudeste 36 Este 0 -- -- 62
2019-04-15 12:00:00 21.4 20 Este 35 Sudeste 0 -- -- 54
2019-04-15 11:00:00 20.7 19 Sudeste 28 Sudeste 0 -- -- 50
2019-04-15 10:00:00 18.3 7 Sudeste 13 Sudeste 0 -- -- 55
2019-04-15 09:00:00 16.9 6 Este 18 Norte 0 -- -- 56
2019-04-15 08:00:00 15.3 6 Noroeste 18 Norte 0 -- -- 64
2019-04-15 07:00:00 15.8 6 Noroeste 18 Norte 0 -- -- 60
2019-04-15 06:00:00 15.2 6 Noroeste 11 Noroeste 0 -- -- 59
2019-04-15 05:00:00 15.2 0 Calma 8 Noroeste 0 -- -- 56
2019-04-15 04:00:00 16.2 5 Noroeste 17 Norte 0 -- -- 54
2019-04-15 03:00:00 16 15 Norte 17 Norte 0 -- -- 53
2019-04-15 02:00:00 14.8 2 Norte 8 Oeste 0 -- -- 54
2019-04-15 01:00:00 15 4 Norte 8 Noroeste 0 -- -- 57
2019-04-15 00:00:00 16.2 4 Norte 11 Noroeste 0 -- -- 51
2019-04-14 23:00:00 16.8 5 Norte 9 Noroeste 0 -- -- 50
2019-04-14 22:00:00 19.5 4 Noroeste 6 Oeste 0 -- -- 39
2019-04-14 21:00:00 22.6 5 Oeste 26 Sudoeste 0 -- -- 31
2019-04-14 20:00:00 26.6 13 Sudoeste 28 Oeste 0 -- -- 26
2019-04-14 19:00:00 28.5 14 Sudoeste 27 Sudoeste 0 -- -- 24
2019-04-14 18:00:00 29.2 15 Sudoeste 27 Sudoeste 0 -- -- 23
2019-04-14 17:00:00 28.9 8 Noroeste 20 Sudoeste 0 -- -- 24
2019-04-14 16:00:00 28.9 9 Sudoeste 21 Oeste 0 -- -- 24
2019-04-14 15:00:00 27.5 12 Oeste 22 Oeste 0 -- -- 27
2019-04-14 14:00:00 26 10 Noroeste 26 Oeste 0 -- -- 28
2019-04-14 13:00:00 24.5 13 Noroeste 27 Noroeste 0 -- -- 32
2019-04-14 12:00:00 23.1 18 Noroeste 31 Noroeste 0 -- -- 35
2019-04-14 11:00:00 21.1 16 Noroeste 27 Noroeste 0 -- -- 39
2019-04-14 10:00:00 19 10 Noroeste 19 Noroeste 0 -- -- 44
2019-04-14 09:00:00 14.2 5 Sudoeste 13 Noroeste 0 -- -- 59
2019-04-14 08:00:00 14 10 Noroeste 27 Noroeste 0 -- -- 56
2019-04-14 07:00:00 15 17 Noroeste 27 Noroeste 0 -- -- 52
2019-04-14 06:00:00 12.1 5 Noroeste 18 Oeste 0 -- -- 63
2019-04-14 05:00:00 11.3 8 Noroeste 15 Noroeste 0 -- -- 68
2019-04-14 04:00:00 10.9 12 Noroeste 17 Oeste 0 -- -- 72
2019-04-14 03:00:00 10.2 6 Oeste 11 Norte 0 -- -- 81
2019-04-14 02:00:00 9.9 6 Noroeste 8 Noroeste 0 -- -- 77
2019-04-14 01:00:00 10.6 3 Noroeste 7 Noroeste 0 -- -- 78
2019-04-14 00:00:00 11.8 4 Norte 7 Noroeste 0 -- -- 74
2019-04-13 23:00:00 13.8 4 Este 9 Este 0 -- -- 68
2019-04-13 22:00:00 15.4 5 Este 14 Este 0 -- -- 68
2019-04-13 21:00:00 17.2 9 Este 23 Este 0 -- -- 54
2019-04-13 20:00:00 19.8 16 Este 32 Este 0 -- -- 47
2019-04-13 19:00:00 21.8 19 Este 32 Este 0 -- -- 43
2019-04-13 18:00:00 23.9 20 Este 31 Este 0 -- -- 34
2019-04-13 17:00:00 25.2 12 Oeste 30 Oeste 0 -- -- 17
2019-04-13 16:00:00 25.5 11 Noroeste 28 Noroeste 0 -- -- 18
2019-04-13 15:00:00 24.2 15 Noroeste 29 Oeste 0 -- -- 20
2019-04-13 14:00:00 23 12 Noroeste 35 Noroeste 0 -- -- 24
2019-04-13 13:00:00 21.4 14 Noroeste 28 Noroeste 0 -- -- 30
2019-04-13 12:00:00 19.6 20 Noroeste 35 Oeste 0 -- -- 35
2019-04-13 11:00:00 17.7 22 Noroeste 33 Noroeste 0 -- -- 37
2019-04-13 10:00:00 15.9 18 Noroeste 28 Noroeste 0 -- -- 42
2019-04-13 09:00:00 13.8 18 Noroeste 25 Noroeste 0 -- -- 48
2019-04-13 08:00:00 12.7 16 Noroeste 28 Noroeste 0 -- -- 48
2019-04-13 07:00:00 12.2 13 Noroeste 22 Norte 0 -- -- 51
2019-04-13 06:00:00 9.1 3 Sudoeste 9 Noroeste 0 -- -- 70
2019-04-13 05:00:00 9 3 Oeste 11 Oeste 0 -- -- 78
2019-04-13 04:00:00 9.6 6 Oeste 15 Noroeste 0 -- -- 87
2019-04-13 03:00:00 9.1 4 Noroeste 8 Noroeste 0 -- -- 91
2019-04-13 02:00:00 8.9 3 Norte 6 Noroeste 0 -- -- 87
2019-04-13 01:00:00 9.6 5 Noroeste 8 Norte 0 -- -- 83
2019-04-13 00:00:00 11.2 3 Norte 6 Este 0 -- -- 79
2019-04-12 23:00:00 12.8 5 Este 14 Este 0 -- -- 76
2019-04-12 22:00:00 14.2 8 Este 22 Este 0 -- -- 74
2019-04-12 21:00:00 15.8 14 Este 30 Este 0 -- -- 64
2019-04-12 20:00:00 18.8 17 Este 35 Este 0 -- -- 48
2019-04-12 19:00:00 22.2 15 Nordeste 28 Este 0 -- -- 30
2019-04-12 18:00:00 23.2 17 Norte 28 Norte 0 -- -- 25
2019-04-12 17:00:00 22.2 18 Norte 39 Norte 0 -- -- 22
2019-04-12 16:00:00 21.9 20 Noroeste 37 Noroeste 0 -- -- 26
2019-04-12 15:00:00 20.9 16 Noroeste 38 Norte 0 -- -- 29
2019-04-12 14:00:00 19.3 21 Noroeste 42 Noroeste 0 -- -- 32
2019-04-12 13:00:00 18 23 Noroeste 41 Noroeste 0 -- -- 35
2019-04-12 12:00:00 16.5 26 Noroeste 44 Noroeste 0 -- -- 39
2019-04-12 11:00:00 14.8 27 Noroeste 37 Noroeste 0 -- -- 44
2019-04-12 10:00:00 13.6 18 Noroeste 29 Noroeste 0 -- -- 49
2019-04-12 09:00:00 11.5 13 Oeste 29 Noroeste 0 -- -- 56
2019-04-12 08:00:00 11 12 Noroeste 23 Noroeste 0 -- -- 56
2019-04-12 07:00:00 11.2 15 Noroeste 23 Noroeste 0 -- -- 55
2019-04-12 06:00:00 11.6 14 Noroeste 32 Noroeste 0 -- -- 54
2019-04-12 05:00:00 11.9 22 Noroeste 35 Noroeste 0 -- -- 52
2019-04-12 04:00:00 10.7 10 Noroeste 15 Noroeste 0 -- -- 55
2019-04-12 03:00:00 12.2 9 Noroeste 17 Norte 0 -- -- 49
2019-04-12 02:00:00 14.2 10 Norte 31 Noroeste 0 -- -- 41
2019-04-12 01:00:00 14.8 17 Noroeste 27 Noroeste 0 -- -- 40
2019-04-12 00:00:00 15.3 16 Noroeste 28 Noroeste 0 -- -- 40
2019-04-11 23:00:00 16.2 18 Noroeste 31 Noroeste 0 -- -- 37
2019-04-11 22:00:00 16.5 18 Noroeste 30 Noroeste 0 -- -- 36
2019-04-11 21:00:00 17.4 19 Norte 36 Noroeste 0 -- -- 33
2019-04-11 20:00:00 19.6 18 Noroeste 35 Noroeste 0 -- -- 31
2019-04-11 19:00:00 20.6 22 Noroeste 40 Noroeste 0 -- -- 29
2019-04-11 18:00:00 21.5 20 Noroeste 35 Noroeste 0 -- -- 30
2019-04-11 17:00:00 20.6 22 Noroeste 39 Noroeste 0 -- -- 32
2019-04-11 16:00:00 20.6 23 Noroeste 40 Noroeste 0 -- -- 31
2019-04-11 15:00:00 19.7 25 Noroeste 39 Noroeste 0 -- -- 33
2019-04-11 14:00:00 18.7 22 Noroeste 34 Noroeste 0 -- -- 38
2019-04-11 13:00:00 16.8 24 Noroeste 37 Noroeste 0 -- -- 45
2019-04-11 12:00:00 15.5 25 Noroeste 40 Noroeste 0 -- -- 46
2019-04-11 11:00:00 14 15 Oeste 28 Oeste 0 -- -- 52
2019-04-11 10:00:00 12.3 17 Oeste 39 Noroeste 0 -- -- 59
2019-04-11 09:00:00 11.2 19 Noroeste 31 Oeste 0 -- -- 63
2019-04-11 08:00:00 9.8 15 Noroeste 28 Noroeste 0 -- -- 71
2019-04-11 07:00:00 9.8 12 Noroeste 21 Oeste 0 -- -- 70
2019-04-11 06:00:00 9.2 10 Noroeste 27 Noroeste 0 -- -- 74
2019-04-11 05:00:00 9.7 14 Noroeste 23 Noroeste 0 -- -- 73
2019-04-11 04:00:00 10.3 9 Oeste 22 Oeste 0 -- -- 70
2019-04-11 03:00:00 11.2 14 Noroeste 36 Noroeste 0 -- -- 66
2019-04-11 02:00:00 11.5 21 Noroeste 38 Noroeste 0 -- -- 65
2019-04-11 01:00:00 11.7 23 Noroeste 42 Noroeste 0 -- -- 66
2019-04-11 00:00:00 11.6 12 Noroeste 25 Noroeste 0 -- -- 67
2019-04-10 23:00:00 11.3 14 Noroeste 29 Noroeste 0 -- -- 72
2019-04-10 22:00:00 11.3 8 Noroeste 18 Oeste 0 -- -- 77
2019-04-10 21:00:00 11.3 9 Noroeste 20 Noroeste 0 -- -- 79
2019-04-10 20:00:00 11.8 8 Noroeste 18 Oeste 0 -- -- 79
2019-04-10 19:00:00 11.2 14 Oeste 52 Noroeste 1.4 -- -- 81
2019-04-10 18:00:00 13.6 33 Norte 50 Norte 0 -- -- 56
2019-04-10 17:00:00 19 15 Noroeste 29 Noroeste 0 -- -- 37
2019-04-10 16:00:00 18.4 17 Norte 42 Norte 0 -- -- 41
2019-04-10 15:00:00 18.4 28 Noroeste 43 Noroeste 0 -- -- 36
2019-04-10 14:00:00 17.3 27 Noroeste 41 Norte 0 -- -- 40
2019-04-10 13:00:00 16.6 19 Noroeste 40 Noroeste 0 -- -- 44
2019-04-10 12:00:00 15.4 19 Noroeste 36 Noroeste 0 -- -- 49
2019-04-10 11:00:00 15 15 Noroeste 30 Noroeste 0 -- -- 51
2019-04-10 10:00:00 13.8 14 Noroeste 24 Noroeste 0 -- -- 57
2019-04-10 09:00:00 11.7 8 Noroeste 15 Noroeste 0 -- -- 64
2019-04-10 08:00:00 9.5 7 Noroeste 16 Oeste 0 -- -- 72
2019-04-10 07:00:00 10.2 9 Oeste 15 Oeste 0 -- -- 70
2019-04-10 06:00:00 10.3 10 Oeste 14 Oeste 0 -- -- 70
2019-04-10 05:00:00 10.5 7 Oeste 15 Noroeste 0 -- -- 69
2019-04-10 04:00:00 11.1 10 Noroeste 17 Noroeste 0 -- -- 67
2019-04-10 03:00:00 10.6 9 Oeste 14 Oeste 0 -- -- 70
2019-04-10 02:00:00 11.6 7 Oeste 15 Oeste 0 -- -- 64
2019-04-10 01:00:00 12.1 10 Noroeste 25 Noroeste 0 -- -- 65
2019-04-10 00:00:00 13.1 12 Noroeste 24 Noroeste 0 -- -- 61
2019-04-09 23:00:00 13.7 16 Noroeste 32 Noroeste 0 -- -- 58
2019-04-09 22:00:00 14.3 20 Noroeste 36 Noroeste 0 -- -- 55
2019-04-09 21:00:00 14.7 18 Noroeste 29 Noroeste 0 -- -- 51
2019-04-09 20:00:00 17 20 Noroeste 48 Noroeste 0 -- -- 44
2019-04-09 19:00:00 17.8 26 Noroeste 54 Noroeste 0 -- -- 40
2019-04-09 18:00:00 18.1 26 Noroeste 46 Noroeste 0 -- -- 38
2019-04-09 17:00:00 20.2 -- -- -- -- -- -- -- --
2019-04-09 16:00:00 20.4 23 Noroeste 39 Noroeste 0 -- -- 32
2019-04-09 15:00:00 19.6 28 Noroeste 44 Noroeste 0 -- -- 33
2019-04-09 14:00:00 19.1 23 Noroeste 40 Noroeste 0 -- -- 37
2019-04-09 13:00:00 17.9 18 Noroeste 33 Noroeste 0 -- -- 41
2019-04-09 12:00:00 16.6 17 Noroeste 30 Noroeste 0 -- -- 46
2019-04-09 11:00:00 15.1 18 Noroeste 28 Noroeste 0 -- -- 51
2019-04-09 10:00:00 13.8 13 Noroeste 27 Noroeste 0 -- -- 55
2019-04-09 09:00:00 11.7 11 Noroeste 22 Noroeste 0 -- -- 63
2019-04-09 08:00:00 11.1 10 Oeste 31 Oeste 0 -- -- 69
2019-04-09 07:00:00 11.9 14 Noroeste 26 Oeste 0 -- -- 68
2019-04-09 06:00:00 12.6 17 Noroeste 31 Noroeste 0 -- -- 65
2019-04-09 05:00:00 12.7 16 Oeste 32 Noroeste 0 -- -- 70
2019-04-09 04:00:00 12.9 21 Noroeste 32 Oeste 0 -- -- 69
2019-04-09 03:00:00 12.3 21 Oeste 51 Noroeste 0 -- -- 78
2019-04-09 02:00:00 13.3 39 Noroeste 65 Noroeste 0 -- -- 71
2019-04-09 01:00:00 13.4 5 Noroeste 9 Noroeste 0 -- -- 78
2019-04-09 00:00:00 15 3 Sudoeste 15 Noroeste 0 -- -- 68
2019-04-08 23:00:00 16.3 9 Noroeste 15 Oeste 0 -- -- 63
2019-04-08 22:00:00 15.6 6 Oeste 11 Noroeste 0 -- -- 66
2019-04-08 21:00:00 16.3 4 Oeste 10 Noroeste 0 -- -- 76
2019-04-08 20:00:00 17.4 3 Sur 10 Norte 0 -- -- 69
2019-04-08 19:00:00 17.6 8 Norte 40 Oeste 0.2 -- -- 71
2019-04-08 18:00:00 20.2 13 Noroeste 28 Noroeste 0 -- -- 50
2019-04-08 17:00:00 22.5 9 Oeste 21 Oeste 0 -- -- 42
2019-04-08 16:00:00 21.4 10 Sudoeste 24 Sudoeste 0 -- -- 47
2019-04-08 15:00:00 19.8 9 Oeste 19 Oeste 0 -- -- 52
2019-04-08 14:00:00 18.7 12 Oeste 19 Oeste 0 -- -- 56
2019-04-08 13:00:00 17.9 9 Oeste 21 Oeste 0 -- -- 58
2019-04-08 12:00:00 15.8 16 Oeste 27 Noroeste 0 -- -- 65
2019-04-08 11:00:00 14.8 12 Noroeste 24 Noroeste 0 -- -- 68
2019-04-08 10:00:00 13.4 8 Oeste 17 Noroeste 0 -- -- 73
2019-04-08 09:00:00 12.1 3 Sur 15 Noroeste 0 -- -- 77
2019-04-08 08:00:00 11.8 6 Oeste 12 Noroeste 0 -- -- 78
2019-04-08 07:00:00 12 5 Noroeste 11 Norte 0 -- -- 78
2019-04-08 06:00:00 12.7 8 Norte 15 Noroeste 0 -- -- 74
2019-04-08 05:00:00 12.6 10 Noroeste 18 Noroeste 0 -- -- 74
2019-04-08 04:00:00 12.9 7 Norte 15 Noroeste 0 -- -- 71
2019-04-08 03:00:00 12.7 8 Noroeste 13 Oeste 0 -- -- 66
2019-04-08 02:00:00 12.5 4 Oeste 13 Noroeste 0 -- -- 71
2019-04-08 01:00:00 13.1 9 Norte 12 Norte 0 -- -- 67
2019-04-08 00:00:00 13.7 3 Noroeste 9 Noroeste 0 -- -- 65
2019-04-07 23:00:00 14.5 8 Noroeste 23 Oeste 0 -- -- 58
2019-04-07 22:00:00 14.8 11 Noroeste 22 Noroeste 0 -- -- 54
2019-04-07 21:00:00 15.6 12 Noroeste 24 Noroeste 0 -- -- 51
2019-04-07 20:00:00 16.6 15 Noroeste 32 Noroeste 0 -- -- 46
2019-04-07 19:00:00 17.5 15 Noroeste 33 Noroeste 0 -- -- 43
2019-04-07 18:00:00 18.1 18 Noroeste 41 Oeste 0 -- -- 39
2019-04-07 17:00:00 18.3 15 Noroeste 42 Oeste 0 -- -- 38
2019-04-07 16:00:00 17.3 20 Noroeste 48 Noroeste 0 -- -- 44
2019-04-07 15:00:00 16.7 19 Noroeste 45 Noroeste 0 -- -- 51
2019-04-07 14:00:00 15.6 19 Noroeste 39 Noroeste 0 -- -- 54
2019-04-07 13:00:00 14.8 22 Noroeste 50 Noroeste 0 -- -- 59
2019-04-07 12:00:00 13.2 24 Noroeste 51 Oeste 0 -- -- 61
2019-04-07 11:00:00 10.5 30 Noroeste 54 Noroeste 0.6 -- -- 76
2019-04-07 10:00:00 8.4 31 Noroeste 47 Noroeste 0.8 -- -- 89
2019-04-07 09:00:00 8.2 15 Noroeste 31 Norte 0.4 -- -- 88
2019-04-07 08:00:00 8.3 21 Norte 32 Norte 0.4 -- -- 85
2019-04-07 07:00:00 9.2 16 Noroeste 32 Noroeste 0 -- -- 76
2019-04-07 06:00:00 9.1 13 Oeste 37 Oeste 0 -- -- 70
2019-04-07 05:00:00 9.1 15 Oeste 33 Oeste 0 -- -- 68
2019-04-07 04:00:00 9.2 18 Oeste 30 Oeste 0 -- -- 65
2019-04-07 03:00:00 9 16 Oeste 23 Oeste 0 -- -- 65
2019-04-07 02:00:00 9.3 9 Noroeste 21 Noroeste 0 -- -- 64
2019-04-07 01:00:00 9.6 13 Noroeste 20 Noroeste 0 -- -- 62
2019-04-07 00:00:00 9.2 8 Noroeste 17 Noroeste 0 -- -- 67
2019-04-06 23:00:00 10.5 13 Noroeste 31 Noroeste 0 -- -- 61
2019-04-06 22:00:00 11.6 19 Noroeste 40 Noroeste 0 -- -- 54
2019-04-06 21:00:00 12.5 21 Noroeste 35 Noroeste 0 -- -- 53
2019-04-06 20:00:00 13.3 16 Noroeste 39 Noroeste 0 -- -- 55
2019-04-06 19:00:00 13.5 26 Noroeste 42 Norte 0 -- -- 53
2019-04-06 18:00:00 14.6 16 Norte 39 Oeste 0.2 -- -- 54
2019-04-06 17:00:00 14.7 7 Oeste 24 Sudoeste 0.6 -- -- 62
2019-04-06 16:00:00 17 12 Oeste 28 Oeste 0 -- -- 48
2019-04-06 15:00:00 13 5 Sudoeste 33 Oeste 0.6 -- -- 71
2019-04-06 14:00:00 16.9 3 Nordeste 20 Oeste 0 -- -- 41
2019-04-06 13:00:00 16.2 4 Sudoeste 16 Sudoeste 0 -- -- 43
2019-04-06 12:00:00 14.3 5 Sur 14 Sudoeste 0 -- -- 49
2019-04-06 11:00:00 12.2 6 Sudoeste 14 Oeste 0 -- -- 56
2019-04-06 10:00:00 9.5 7 Sudoeste 15 Sudoeste 0 -- -- 70
2019-04-06 09:00:00 7.4 4 Sudoeste 11 Noroeste 0 -- -- 79
2019-04-06 08:00:00 6.3 4 Noroeste 12 Noroeste 0 -- -- 80
2019-04-06 07:00:00 6.1 4 Oeste 12 Noroeste 0 -- -- 82
2019-04-06 06:00:00 7.1 8 Noroeste 17 Noroeste 0 -- -- 79
2019-04-06 05:00:00 6.4 2 Oeste 10 Oeste 0 -- -- 84
2019-04-06 04:00:00 6.5 0 Calma 7 Noroeste 0 -- -- 85
2019-04-06 03:00:00 6.4 4 Norte 9 Sur 0 -- -- 85
2019-04-06 02:00:00 6.9 4 Noroeste 14 Oeste 0 -- -- 80
2019-04-06 01:00:00 8 7 Oeste 21 Noroeste 0 -- -- 72
2019-04-06 00:00:00 9.3 14 Noroeste 30 Noroeste 0 -- -- 65
2019-04-05 23:00:00 8.7 14 Noroeste 30 Noroeste 0 -- -- 72
2019-04-05 22:00:00 8.4 8 Noroeste 51 Noroeste 0.4 -- -- 80
2019-04-05 21:00:00 9.7 23 Noroeste 49 Noroeste 0.4 -- -- 79
2019-04-05 20:00:00 11.5 2 Este 8 Norte 0 -- -- 89
2019-04-05 19:00:00 11.5 2 Norte 6 Sudeste 0 -- -- 90
2019-04-05 18:00:00 11.2 4 Este 15 Noroeste 0.2 -- -- 90
2019-04-05 17:00:00 11 10 Oeste 37 Noroeste 0.4 -- -- 91
2019-04-05 16:00:00 11.3 23 Noroeste 44 Noroeste 1.4 -- -- 86
2019-04-05 15:00:00 18.4 15 Sur 33 Sudeste 0 -- -- 41
2019-04-05 14:00:00 18.7 10 Sur 22 Sudoeste 0 -- -- 44
2019-04-05 13:00:00 18.3 7 Sur 17 Sur 0 -- -- 43
2019-04-05 12:00:00 15.9 4 Sudoeste 11 Sudoeste 0 -- -- 48
2019-04-05 11:00:00 14.4 5 Oeste 13 Sudoeste 0 -- -- 57
2019-04-05 10:00:00 12.8 4 Noroeste 13 Noroeste 0 -- -- 74
2019-04-05 09:00:00 11.1 4 Noroeste 8 Norte 0 -- -- 84
2019-04-05 08:00:00 9.4 5 Norte 6 Noroeste 0 -- -- 88
2019-04-05 07:00:00 10.3 0 Calma 4 Nordeste 0 -- -- 84
2019-04-05 06:00:00 10.9 2 Nordeste 6 Nordeste 0 -- -- 81
2019-04-05 05:00:00 11.2 3 Nordeste 5 Nordeste 0 -- -- 80
2019-04-05 04:00:00 11.5 3 Este 6 Este 0 -- -- 79
2019-04-05 03:00:00 12.3 4 Este 6 Este 0 -- -- 75
2019-04-05 02:00:00 12.6 3 Este 6 Este 0 -- -- 72
2019-04-05 01:00:00 12.8 3 Sudeste 8 Sudeste 0 -- -- 70
2019-04-05 00:00:00 13 5 Sur 14 Sur 0 -- -- 67
2019-04-04 23:00:00 13.3 9 Sur 21 Sur 0 -- -- 65
2019-04-04 22:00:00 13.8 8 Sur 17 Sudeste 0 -- -- 62
2019-04-04 21:00:00 14.3 9 Sur 22 Sur 0 -- -- 58
2019-04-04 20:00:00 15 11 Sur 30 Sur 0 -- -- 56
2019-04-04 19:00:00 17 14 Sur 28 Sudeste 0 -- -- 51
2019-04-04 18:00:00 19 17 Sudeste 29 Sudeste 0 -- -- 44
2019-04-04 17:00:00 19.8 15 Sudeste 30 Sudeste 0 -- -- 40
2019-04-04 16:00:00 19.4 9 Oeste 19 Sur 0 -- -- 29
2019-04-04 15:00:00 18.6 10 Noroeste 20 Oeste 0 -- -- 30
2019-04-04 14:00:00 17.6 5 Sudoeste 17 Oeste 0 -- -- 31
2019-04-04 13:00:00 17 7 Sudoeste 18 Oeste 0 -- -- 36
2019-04-04 12:00:00 15.1 9 Oeste 22 Oeste 0 -- -- 44
2019-04-04 11:00:00 13.5 10 Oeste 28 Noroeste 0 -- -- 53
2019-04-04 10:00:00 11.6 14 Noroeste 28 Oeste 0 -- -- 58
2019-04-04 09:00:00 9.6 8 Oeste 13 Oeste 0 -- -- 67
2019-04-04 08:00:00 8.8 6 Norte 8 Norte 0 -- -- 92
2019-04-04 07:00:00 9.2 6 Norte 8 Norte 0 -- -- 89
2019-04-04 06:00:00 10.2 2 Sur 10 Sur 0 -- -- 87
2019-04-04 05:00:00 10.8 2 Sur 7 Sur 0 -- -- 84
2019-04-04 04:00:00 11.9 0 Calma 15 Norte 0 -- -- 76
2019-04-04 03:00:00 12.8 4 Este 28 Noroeste 0 -- -- 56
2019-04-04 02:00:00 14.5 18 Noroeste 24 Noroeste 0 -- -- 51
2019-04-04 01:00:00 14.8 10 Noroeste 25 Norte 0 -- -- 50
2019-04-04 00:00:00 15.5 14 Noroeste 24 Norte 0 -- -- 51
2019-04-03 23:00:00 15.1 4 Noroeste 8 Noroeste 0 -- -- 67
2019-04-03 22:00:00 16.6 2 Nordeste 11 Noroeste 0 -- -- 61
2019-04-03 21:00:00 18.6 2 Oeste 10 Sudeste 0 -- -- 62
2019-04-03 20:00:00 21.9 4 Sudeste 19 Sudeste 0 -- -- 50
2019-04-03 19:00:00 23.8 12 Sudeste 23 Sudeste 0 -- -- 41
2019-04-03 18:00:00 24.1 10 Sudoeste 31 Sudeste 0 -- -- 37
2019-04-03 17:00:00 23.5 14 Sur 27 Sur 0 -- -- 42
2019-04-03 16:00:00 23.6 8 Sur 22 Sur 0 -- -- 39
2019-04-03 15:00:00 23 6 Norte 21 Oeste 0 -- -- 34
2019-04-03 14:00:00 22.7 10 Sudoeste 23 Oeste 0 -- -- 34
2019-04-03 13:00:00 20.9 12 Oeste 22 Noroeste 0 -- -- 43
2019-04-03 12:00:00 19.1 14 Noroeste 27 Noroeste 0 -- -- 50
2019-04-03 11:00:00 17.2 18 Noroeste 26 Noroeste 0 -- -- 57
2019-04-03 10:00:00 14.7 17 Noroeste 26 Noroeste 0 -- -- 66
2019-04-03 09:00:00 11.8 14 Noroeste 23 Noroeste 0 -- -- 82
2019-04-03 08:00:00 9.6 5 Oeste 14 Oeste 0 -- -- 92
2019-04-03 07:00:00 9.6 8 Oeste 13 Oeste 0 -- -- 94
2019-04-03 06:00:00 10 3 Oeste 9 Sudoeste 0 -- -- 93
2019-04-03 05:00:00 10.3 3 Oeste 11 Norte 0 -- -- 91
2019-04-03 04:00:00 10.6 9 Noroeste 10 Noroeste 0 -- -- 92
2019-04-03 03:00:00 11.3 5 Oeste 8 Oeste 0 -- -- 94
2019-04-03 02:00:00 11.7 4 Norte 9 Noroeste 0 -- -- 89
2019-04-03 01:00:00 13 7 Noroeste 10 Noroeste 0 -- -- 88
2019-04-03 00:00:00 14.2 7 Este 14 Sudeste 0 -- -- 88
2019-04-02 23:00:00 14.7 4 Este 11 Nordeste 0 -- -- 78
2019-04-02 22:00:00 15.7 0 Calma 16 Sudoeste 0 -- -- 74
2019-04-02 21:00:00 17.7 11 Oeste 19 Oeste 0 -- -- 64
2019-04-02 20:00:00 21.2 6 Sudoeste 15 Sudoeste 0 -- -- 53
2019-04-02 19:00:00 23.5 7 Sudoeste 15 Oeste 0 -- -- 44
2019-04-02 18:00:00 22.3 7 Sudoeste 21 Sudoeste 0 -- -- 44
2019-04-02 17:00:00 21.4 9 Sudoeste 20 Oeste 0 -- -- 48
2019-04-02 16:00:00 21.9 10 Sudoeste 22 Oeste 0 -- -- 46
2019-04-02 15:00:00 21.3 12 Oeste 24 Oeste 0 -- -- 49
2019-04-02 14:00:00 20.2 15 Oeste 30 Oeste 0 -- -- 47
2019-04-02 13:00:00 18.5 15 Noroeste 30 Oeste 0 -- -- 60
2019-04-02 12:00:00 16.6 15 Oeste 23 Oeste 0 -- -- 72
2019-04-02 11:00:00 14.6 12 Oeste 19 Oeste 0 -- -- 84
2019-04-02 10:00:00 12.6 12 Noroeste 18 Noroeste 0 -- -- 96
2019-04-02 09:00:00 9.9 2 Sudoeste 4 Oeste 0 -- -- 99
2019-04-02 08:00:00 9.6 3 Noroeste 5 Noroeste 0 -- -- 97
2019-04-02 07:00:00 10.4 0 Calma 5 Noroeste 0 -- -- 96
2019-04-02 06:00:00 10.9 3 Oeste 5 Noroeste 0 -- -- 96
2019-04-02 05:00:00 11.7 2 Norte 5 Norte 0 -- -- 95
2019-04-02 04:00:00 12.5 2 Norte 4 Norte 0 -- -- 95
2019-04-02 03:00:00 12.8 0 Calma 4 Este 0 -- -- 94
2019-04-02 02:00:00 13 3 Este 6 Nordeste 0.2 -- -- 95
2019-04-02 01:00:00 13.2 3 Nordeste 12 Este 0 -- -- 93
2019-04-02 00:00:00 13.4 5 Este 9 Este 0 -- -- 92
2019-04-01 23:00:00 13.7 5 Este 15 Sudeste 0 -- -- 89
2019-04-01 22:00:00 14 9 Este 15 Sudeste 0 -- -- 86
2019-04-01 21:00:00 14.6 10 Sudeste 22 Sudeste 0 -- -- 81
2019-04-01 20:00:00 15.1 15 Sudeste 25 Sudeste 0 -- -- 76
2019-04-01 19:00:00 16.1 12 Sudeste 25 Sudeste 0 -- -- 76
2019-04-01 18:00:00 17 14 Sur 26 Sur 0 -- -- 76
2019-04-01 17:00:00 17.4 13 Sudeste 25 Sudeste 0.2 -- -- 80
2019-04-01 16:00:00 18 11 Sudeste 22 Sudeste 0 -- -- 70
2019-04-01 15:00:00 17.8 8 Este 18 Sudeste 0 -- -- 72
2019-04-01 14:00:00 17.9 12 Sudeste 21 Este 0 -- -- 70
2019-04-01 13:00:00 17.2 9 Este 20 Sudeste 0 -- -- 73
2019-04-01 12:00:00 15.5 4 Nordeste 14 Norte 0 -- -- 79
2019-04-01 11:00:00 14 10 Noroeste 17 Oeste 0 -- -- 86
2019-04-01 10:00:00 12.6 5 Noroeste 13 Noroeste 0 -- -- 95
2019-04-01 09:00:00 11.8 2 Noroeste 8 Norte 0 -- -- 99
2019-04-01 08:00:00 11.6 3 Noroeste 8 Oeste 0 -- -- 99
2019-04-01 07:00:00 11.5 4 Oeste 10 Noroeste 0 -- -- 99
2019-04-01 06:00:00 11.6 2 Oeste 4 Noroeste 0 -- -- 98
2019-04-01 05:00:00 11.8 2 Noroeste 9 Sudeste 0 -- -- 98
2019-04-01 04:00:00 12 7 Sudeste 12 Este 0 -- -- 98
2019-04-01 03:00:00 11.9 0 Calma 6 Noroeste 0 -- -- 98
2019-04-01 02:00:00 11.9 3 Noroeste 10 Norte 0 -- -- 98
2019-04-01 01:00:00 11.8 0 Calma 8 Nordeste 0.2 -- -- 97
2019-04-01 00:00:00 11.9 5 Nordeste 8 Nordeste 0 -- -- 97
2019-03-31 23:00:00 11.9 4 Norte 6 Norte 0 -- -- 98
2019-03-31 22:00:00 12 4 Norte 7 Norte 0 -- -- 98
2019-03-31 21:00:00 12.2 3 Noroeste 6 Oeste 0 -- -- 98
2019-03-31 20:00:00 12.4 4 Noroeste 12 Noroeste 0 -- -- 98
2019-03-31 19:00:00 12.3 9 Noroeste 13 Noroeste 0.6 -- -- 98
2019-03-31 18:00:00 12.1 8 Noroeste 14 Noroeste 0.8 -- -- 98
2019-03-31 17:00:00 12 8 Noroeste 17 Noroeste 1 -- -- 98
2019-03-31 16:00:00 11.4 10 Noroeste 19 Noroeste 1 -- -- 98
2019-03-31 15:00:00 11.2 13 Noroeste 23 Noroeste 1 -- -- 98
2019-03-31 14:00:00 11 8 Norte 18 Noroeste 1 -- -- 98
2019-03-31 13:00:00 10.5 11 Noroeste 19 Noroeste 1.6 -- -- 98
2019-03-31 12:00:00 10.1 13 Noroeste 21 Noroeste 3.2 -- -- 98
2019-03-31 11:00:00 9.7 11 Noroeste 17 Noroeste 2.4 -- -- 97
2019-03-31 10:00:00 9.5 13 Noroeste 22 Noroeste 0.4 -- -- 97
2019-03-31 09:00:00 9.6 12 Noroeste 18 Noroeste 0.8 -- -- 96
2019-03-31 08:00:00 10.3 4 Noroeste 6 Noroeste 0.8 -- -- 92
2019-03-31 07:00:00 10.9 0 Calma 4 Sur 0.8 -- -- 92
2019-03-31 06:00:00 10.9 0 Calma 3 Sudoeste 0.2 -- -- 91
2019-03-31 05:00:00 11.1 3 Noroeste 8 Norte 0.4 -- -- 91
2019-03-31 03:00:00 11.4 5 Norte 9 Norte 0 -- -- 81
2019-03-31 01:00:00 11.1 4 Noroeste 7 Noroeste 0 -- -- 83
2019-03-31 00:00:00 10.1 4 Noroeste 8 Norte 0 -- -- 85
2019-03-30 23:00:00 10.7 3 Noroeste 5 Noroeste 0 -- -- 82
2019-03-30 22:00:00 11.6 4 Sudeste 17 Sudeste 0 -- -- 80
2019-03-30 21:00:00 12.3 10 Sudeste 20 Sudeste 0 -- -- 75
2019-03-30 20:00:00 12.9 12 Este 29 Sudeste 0 -- -- 71
2019-03-30 19:00:00 14.4 14 Este 31 Este 0 -- -- 66
2019-03-30 18:00:00 16.1 18 Sudeste 28 Sudeste 0 -- -- 59
2019-03-30 17:00:00 17.2 19 Sudeste 34 Este 0 -- -- 56
2019-03-30 16:00:00 18.1 18 Este 35 Este 0 -- -- 50
2019-03-30 15:00:00 18.4 19 Este 32 Este 0 -- -- 48
2019-03-30 14:00:00 18.5 18 Sudeste 30 Sudeste 0 -- -- 48
2019-03-30 13:00:00 17.5 15 Sudeste 27 Sudeste 0 -- -- 47
2019-03-30 12:00:00 16.5 11 Este 27 Este 0 -- -- 52
2019-03-30 11:00:00 15.5 12 Sudeste 24 Sudeste 0 -- -- 57
2019-03-30 10:00:00 13.1 5 Sudeste 11 Este 0 -- -- 65
2019-03-30 09:00:00 9.9 3 Sudoeste 12 Norte 0 -- -- 77
2019-03-30 08:00:00 6.2 5 Norte 9 Norte 0 -- -- 87
2019-03-30 07:00:00 5.4 4 Noroeste 13 Noroeste 0 -- -- 86
2019-03-30 06:00:00 5.8 5 Noroeste 7 Noroeste 0 -- -- 87
2019-03-30 05:00:00 7 4 Norte 18 Norte 0 -- -- 82
2019-03-30 04:00:00 6.9 12 Norte 16 Norte 0 -- -- 86
2019-03-30 03:00:00 6.2 3 Noroeste 10 Norte 0 -- -- 87
2019-03-30 02:00:00 6.9 7 Norte 10 Norte 0 -- -- 87
2019-03-30 01:00:00 6.6 5 Norte 10 Norte 0 -- -- 86
2019-03-30 00:00:00 6.9 4 Norte 8 Norte 0 -- -- 86
2019-03-29 23:00:00 7.9 5 Norte 9 Norte 0 -- -- 81
2019-03-29 22:00:00 9.4 0 Calma 8 Nordeste 0 -- -- 77
2019-03-29 21:00:00 10.8 4 Nordeste 11 Este 0 -- -- 74
2019-03-29 20:00:00 12.2 8 Este 23 Este 0 -- -- 68
2019-03-29 19:00:00 14.4 14 Sudeste 31 Este 0 -- -- 56
2019-03-29 18:00:00 15.7 21 Este 33 Sudeste 0 -- -- 45
2019-03-29 17:00:00 16.3 22 Sudeste 34 Sudeste 0 -- -- 51
2019-03-29 16:00:00 17.1 20 Sudeste 32 Sudeste 0 -- -- 50
2019-03-29 15:00:00 17.4 18 Sudeste 35 Sudeste 0 -- -- 48
2019-03-29 14:00:00 16.5 17 Este 35 Sudeste 0 -- -- 51
2019-03-29 13:00:00 16.1 20 Este 33 Sudeste 0 -- -- 51
2019-03-29 12:00:00 15.7 18 Este 31 Sudeste 0 -- -- 56
2019-03-29 11:00:00 15.5 15 Sudeste 31 Sudeste 0 -- -- 59
2019-03-29 10:00:00 12.8 3 Sudeste 15 Noroeste 0 -- -- 64
2019-03-29 09:00:00 9.8 12 Norte 19 Norte 0 -- -- 61
2019-03-29 08:00:00 6.7 14 Norte 20 Norte 0 -- -- 72
2019-03-29 07:00:00 5 4 Noroeste 10 Norte 0 -- -- 78
2019-03-29 06:00:00 6 4 Noroeste 17 Norte 0 -- -- 76
2019-03-29 05:00:00 6.8 12 Norte 16 Norte 0 -- -- 79
2019-03-29 04:00:00 5.6 3 Noroeste 6 Noroeste 0 -- -- 82
2019-03-29 03:00:00 6.1 3 Noroeste 10 Norte 0 -- -- 83
2019-03-29 02:00:00 6.6 3 Norte 8 Norte 0 -- -- 84
2019-03-29 01:00:00 6.9 5 Norte 8 Norte 0 -- -- 87
2019-03-29 00:00:00 6.6 4 Norte 8 Noroeste 0 -- -- 85
2019-03-28 23:00:00 8.3 3 Nordeste 5 Sudeste 0 -- -- 82
2019-03-28 22:00:00 10.3 2 Sur 10 Este 0 -- -- 79
2019-03-28 21:00:00 11.4 6 Este 19 Este 0 -- -- 74
2019-03-28 20:00:00 12.7 12 Este 20 Este 0 -- -- 66
2019-03-28 19:00:00 14.9 14 Este 27 Sudeste 0 -- -- 46
2019-03-28 18:00:00 16.7 17 Este 28 Sudeste 0 -- -- 38
2019-03-28 17:00:00 17.5 18 Sudeste 31 Sudeste 0 -- -- 37
2019-03-28 16:00:00 18.7 18 Sudeste 35 Sudeste 0 -- -- 31
2019-03-28 15:00:00 19.1 19 Este 35 Sudeste 0 -- -- 29
2019-03-28 14:00:00 19.5 12 Sudeste 39 Sudeste 0 -- -- 22
2019-03-28 13:00:00 18.1 15 Sudeste 30 Sudeste 0 -- -- 25
2019-03-28 12:00:00 17.2 13 Sur 25 Sudeste 0 -- -- 28
2019-03-28 11:00:00 14.5 6 Noroeste 14 Noroeste 0 -- -- 33
2019-03-28 10:00:00 12.3 9 Noroeste 19 Noroeste 0 -- -- 43
2019-03-28 09:00:00 9.5 16 Noroeste 23 Noroeste 0 -- -- 53
2019-03-28 08:00:00 6.2 16 Norte 24 Norte 0 -- -- 63
2019-03-28 07:00:00 4.8 8 Noroeste 19 Norte 0 -- -- 70
2019-03-28 06:00:00 6 5 Noroeste 20 Norte 0 -- -- 66
2019-03-28 05:00:00 5.8 14 Norte 19 Norte 0 -- -- 68
2019-03-28 04:00:00 6.4 10 Norte 17 Norte 0 -- -- 70
2019-03-28 03:00:00 5.1 3 Norte 9 Norte 0 -- -- 81
2019-03-28 02:00:00 5.8 7 Norte 13 Norte 0 -- -- 80
2019-03-28 01:00:00 5.4 8 Noroeste 10 Noroeste 0 -- -- 81
2019-03-28 00:00:00 5.8 5 Norte 8 Norte 0 -- -- 74
2019-03-27 23:00:00 6.4 5 Noroeste 8 Noroeste 0 -- -- 67
2019-03-27 22:00:00 6.9 6 Noroeste 8 Noroeste 0 -- -- 64
2019-03-27 21:00:00 9.6 2 Norte 6 Sudeste 0 -- -- 53
2019-03-27 20:00:00 12.2 3 Este 23 Este 0 -- -- 46
2019-03-27 19:00:00 14.9 13 Sudeste 30 Sudeste 0 -- -- 39
2019-03-27 18:00:00 17.2 19 Sudeste 35 Sudeste 0 -- -- 36
2019-03-27 17:00:00 17.4 23 Sudeste 37 Sudeste 0 -- -- 38
2019-03-27 16:00:00 18.8 22 Sudeste 34 Sudeste 0 -- -- 36
2019-03-27 15:00:00 19.3 18 Sudeste 39 Este 0 -- -- 33
2019-03-27 14:00:00 19 11 Sudeste 28 Sudeste 0 -- -- 30
2019-03-27 13:00:00 17.5 19 Este 37 Sudeste 0 -- -- 34
2019-03-27 12:00:00 16.6 19 Sudeste 33 Este 0 -- -- 41
2019-03-27 11:00:00 15.3 17 Este 31 Sudeste 0 -- -- 43
2019-03-27 10:00:00 13.5 11 Este 22 Sudeste 0 -- -- 45
2019-03-27 09:00:00 10 10 Norte 21 Norte 0 -- -- 59
2019-03-27 08:00:00 7.1 13 Norte 21 Norte 0 -- -- 69
2019-03-27 07:00:00 6.2 15 Norte 21 Norte 0 -- -- 69
2019-03-27 06:00:00 6.3 15 Norte 21 Norte 0 -- -- 70
2019-03-27 05:00:00 5.5 3 Norte 10 Noroeste 0 -- -- 69
2019-03-27 04:00:00 6.2 8 Norte 12 Norte 0 -- -- 66
2019-03-27 03:00:00 5.9 9 Norte 10 Norte 0 -- -- 69
2019-03-27 02:00:00 5.8 6 Norte 8 Norte 0 -- -- 78
2019-03-27 01:00:00 8 3 Noroeste 8 Norte 0 -- -- 76
2019-03-27 00:00:00 9.5 5 Norte 12 Nordeste 0 -- -- 73
2019-03-26 23:00:00 9.7 4 Este 13 Sudeste 0 -- -- 75
2019-03-26 22:00:00 11.2 8 Este 19 Sudeste 0 -- -- 72
2019-03-26 21:00:00 11.7 6 Este 17 Sudeste 0 -- -- 65
2019-03-26 20:00:00 13 12 Sudeste 28 Este 0 -- -- 62
2019-03-26 19:00:00 14.3 15 Sudeste 35 Sudeste 0 -- -- 63
2019-03-26 18:00:00 15.6 19 Sudeste 37 Sudeste 0 -- -- 61
2019-03-26 17:00:00 16.8 25 Sudeste 39 Este 0 -- -- 58
2019-03-26 16:00:00 17.8 24 Sudeste 41 Este 0 -- -- 52
2019-03-26 15:00:00 18.3 22 Sudeste 43 Este 0 -- -- 51
2019-03-26 14:00:00 19.2 25 Sudeste 40 Este 0 -- -- 49
2019-03-26 13:00:00 19.1 23 Sudeste 40 Sudeste 0 -- -- 52
2019-03-26 12:00:00 19 20 Sudeste 34 Sudeste 0 -- -- 49
2019-03-26 11:00:00 17.3 14 Sudeste 25 Este 0 -- -- 52
2019-03-26 10:00:00 14.6 4 Sur 10 Sudoeste 0 -- -- 49
2019-03-26 09:00:00 12.2 4 Sudoeste 21 Norte 0 -- -- 50
2019-03-26 08:00:00 9.1 14 Norte 20 Norte 0 -- -- 56
2019-03-26 07:00:00 6.1 11 Norte 16 Norte 0 -- -- 65
2019-03-26 06:00:00 6.2 8 Norte 10 Noroeste 0 -- -- 66
2019-03-26 05:00:00 6.7 5 Noroeste 16 Noroeste 0 -- -- 64
2019-03-26 04:00:00 6.6 7 Noroeste 10 Oeste 0 -- -- 72
2019-03-26 03:00:00 7 0 Calma 7 Noroeste 0 -- -- 72
2019-03-26 02:00:00 7.3 6 Noroeste 10 Norte 0 -- -- 70
2019-03-26 01:00:00 7 6 Norte 8 Norte 0 -- -- 73
2019-03-26 00:00:00 8.2 4 Norte 6 Norte 0 -- -- 70
2019-03-25 23:00:00 10.2 0 Calma 10 Este 0 -- -- 62
2019-03-25 22:00:00 12.1 5 Nordeste 11 Este 0 -- -- 59
2019-03-25 21:00:00 13.5 8 Nordeste 10 Nordeste 0 -- -- 54
2019-03-25 20:00:00 15.5 4 Sudeste 14 Sudeste 0 -- -- 43
2019-03-25 19:00:00 18.3 10 Sudeste 26 Este 0 -- -- 32
2019-03-25 18:00:00 20.2 18 Sudeste 29 Sudeste 0 -- -- 28
2019-03-25 17:00:00 21.9 17 Sudeste 29 Sudeste 0 -- -- 26
2019-03-25 16:00:00 23.2 15 Sudeste 27 Sudeste 0 -- -- 26
2019-03-25 15:00:00 23.1 12 Sudeste 25 Sudeste 0 -- -- 28
2019-03-25 14:00:00 22.2 15 Sudeste 24 Este 0 -- -- 29
2019-03-25 13:00:00 20.9 12 Este 23 Sudeste 0 -- -- 33
2019-03-25 12:00:00 19.5 6 Este 18 Sudeste 0 -- -- 40
2019-03-25 11:00:00 17.1 4 Norte 12 Noroeste 0 -- -- 41
2019-03-25 10:00:00 15.1 9 Norte 20 Norte 0 -- -- 43
2019-03-25 09:00:00 12 14 Norte 21 Norte 0 -- -- 51
2019-03-25 08:00:00 10.3 17 Norte 23 Norte 0 -- -- 55
2019-03-25 07:00:00 9.3 19 Norte 24 Norte 0 -- -- 59
2019-03-25 06:00:00 7.5 10 Norte 15 Norte 0 -- -- 68
2019-03-25 05:00:00 7.9 8 Noroeste 15 Norte 0 -- -- 66
2019-03-25 04:00:00 9.5 15 Norte 20 Norte 0 -- -- 61
2019-03-25 03:00:00 8.2 9 Norte 13 Norte 0 -- -- 71
2019-03-25 02:00:00 7.7 8 Norte 12 Norte 0 -- -- 73
2019-03-25 01:00:00 8.1 6 Norte 10 Norte 0 -- -- 73
2019-03-25 00:00:00 8.1 5 Norte 6 Norte 0 -- -- 73